ORY weather

Paris-Orly Airport
Paris, Île-de-France, France

Public forecast

Using degrees Celsius for public forecast. Weather courtesy of forecast.io.

Current aviation weather report (METAR) for Paris-Orly Airport

Retrieved 2019/11/15 11:30 UTC (8 minutes ago):

LFPO 151130Z VRB03KT 5000 -RASN BKN008 BKN017 02/01 Q0998 TEMPO 2500 -RASN BKN004

Aviation forecast (TAF) for Paris-Orly Airport

Retrieved 2019/11/15 06:00 UTC (6 hours ago):

TAF LFPO 150500Z 1506/1612 01010KT 9999 BKN012 TEMPO 1506/1612 4000 -RA BKN008 PROB40 TEMPO 1506/1512 2500 RA PROB30 TEMPO 1513/1520 1500 -SNRA BKN004 BECMG 1520/1522 18010KT